Startpagina
METAR-TAF:

METAR-TAF

Vliegvelden :

Bagdad, Irak

Internationale Luchthaven Baghdad

breedte: 33-15-45N, lengte: 44-14-04E, hoogte: 35 m

Actueel weer

Dit bericht is 12 minuten geleden gemaakt, om 00:00 UTC
Wind 2 kt uit het noordoosten
Temperatuur 27°C
Vochtigheid 32%
Druk 1006 hPa
Zicht: 9000 m

METAR: ORBI 200000Z 05002KT 9000 NSC 27/09 Q1006

Tijdstip: 03:12 (00:12 UTC)

Verwachting

Dit bericht is 2 uur en het 12 minuten geleden gemaakt, om 22:00 UTC
Verwachting geldig van 20 om 00 UTC tot 20 om 24 UTC
Wind 3 kt uit variabele richting
Zicht: 5000 m
verspreid stof
Kans 30%
van 20 om 02 UTC tot 20 om 05 UTC
Zicht: 3000 m
Wijzigt naar
van 20 om 08 UTC tot 20 om 10 UTC
Wind 8 kt uit het noordwesten
Zicht: 6000 m

TAF: ORBI 192200Z 2000/2024 VRB03KT 5000 DU NSC PROB30 2002/2005 3000 BECMG 2008/2010 32008KT 6000 NSC

Waarnemingen en weersverwachtingen van meer dan 4000 vliegvelden (METAR en TAF).

De beschikbare stations zijn de gele en rode punten op de kaart.

Ga met uw muis naar het station om de naam te zien.

Klik dan om waarnemingen en weersverwachtingen te zien.

kaart wijzigen: klik op de groene knoppen met een zwart kruis om in te zoomen, op de groene knop met een streepje om uit te zoomen of op de groene pijlen voor aangrenzende kaarten.


METAR-TAF: